createdAt,value
2019-05-26T00:00:27.712Z,11.20
2019-05-26T00:04:32.658Z,11.20
2019-05-26T00:08:37.568Z,11.30
2019-05-26T00:21:35.811Z,11.10
2019-05-26T00:25:40.749Z,11.00
2019-05-26T00:43:01.799Z,10.80
2019-05-26T00:47:07.415Z,10.70
2019-05-26T00:51:12.437Z,10.60
2019-05-26T00:55:18.375Z,10.60
2019-05-26T00:59:23.572Z,10.50
2019-05-26T01:03:28.595Z,10.50
2019-05-26T01:07:33.547Z,10.40
2019-05-26T01:11:38.583Z,10.40
2019-05-26T01:15:43.603Z,10.30
2019-05-26T01:19:48.797Z,10.30
2019-05-26T01:36:00.009Z,10.10
2019-05-26T01:40:06.279Z,10.10
2019-05-26T01:44:11.212Z,10.00
2019-05-26T01:48:16.143Z,9.90
2019-05-26T01:52:21.179Z,9.80
2019-05-26T01:56:26.102Z,9.80
2019-05-26T02:00:31.239Z,9.70
2019-05-26T02:04:36.178Z,9.70
2019-05-26T02:08:41.110Z,9.70
2019-05-26T02:12:46.111Z,9.70
2019-05-26T02:16:50.996Z,9.60
2019-05-26T02:20:55.916Z,9.60
2019-05-26T02:25:00.783Z,9.60
2019-05-26T02:29:06.257Z,9.60
2019-05-26T02:33:11.256Z,9.60
2019-05-26T02:37:16.179Z,9.60
2019-05-26T02:41:21.166Z,9.50
2019-05-26T02:45:26.503Z,9.40
2019-05-26T02:49:31.446Z,9.40
2019-05-26T02:53:36.428Z,9.30
2019-05-26T02:57:41.435Z,9.30
2019-05-26T03:02:02.047Z,9.30
2019-05-26T03:05:54.397Z,9.20
2019-05-26T03:10:00.416Z,9.20
2019-05-26T03:14:06.113Z,9.20
2019-05-26T03:18:11.353Z,9.20
2019-05-26T03:22:19.903Z,9.10
2019-05-26T03:26:28.112Z,9.20
2019-05-26T03:30:33.042Z,9.20
2019-05-26T03:34:37.978Z,9.10
2019-05-26T03:38:56.094Z,9.20
2019-05-26T03:43:01.632Z,9.20
2019-05-26T03:56:05.963Z,9.20
2019-05-26T04:00:11.405Z,9.20
2019-05-26T04:04:16.350Z,9.40
2019-05-26T04:08:22.338Z,9.40
2019-05-26T04:12:27.290Z,9.60
2019-05-26T04:16:32.402Z,9.70
2019-05-26T04:20:37.351Z,9.80
2019-05-26T04:46:52.860Z,10.60
2019-05-26T04:50:57.761Z,10.90
2019-05-26T05:08:47.029Z,11.70
2019-05-26T05:12:51.911Z,11.90
2019-05-26T05:16:56.897Z,12.00
2019-05-26T05:46:26.545Z,12.70
2019-05-26T05:50:31.630Z,13.00
2019-05-26T05:54:37.225Z,13.60
2019-05-26T06:07:54.985Z,15.80
2019-05-26T06:12:00.238Z,16.30
2019-05-26T06:16:06.043Z,16.80
2019-05-26T06:20:11.762Z,16.70
2019-05-26T06:24:17.531Z,16.80
2019-05-26T06:41:12.074Z,16.60
2019-05-26T06:45:18.242Z,16.70
2019-05-26T06:49:23.548Z,16.90
2019-05-26T07:14:43.731Z,17.90
2019-05-26T07:41:34.284Z,19.00
2019-05-26T07:45:39.378Z,19.40
2019-05-26T07:49:44.421Z,19.70
2019-05-26T07:53:49.318Z,20.00
2019-05-26T07:57:54.204Z,20.20
2019-05-26T08:01:59.121Z,20.60
2019-05-26T08:06:04.438Z,20.70
2019-05-26T08:10:09.691Z,20.60
2019-05-26T08:14:14.700Z,20.80
2019-05-26T08:18:19.629Z,20.90
2019-05-26T08:22:24.521Z,21.20
2019-05-26T08:26:29.454Z,21.60
2019-05-26T08:30:34.391Z,21.90
2019-05-26T08:34:39.276Z,22.30
2019-05-26T08:38:44.179Z,22.80
2019-05-26T08:42:50.162Z,24.10
2019-05-26T08:46:55.179Z,25.70
2019-05-26T08:51:00.090Z,27.00
2019-05-26T08:55:05.617Z,28.00
2019-05-26T08:59:10.619Z,29.40
2019-05-26T09:13:11.587Z,30.60
2019-05-26T09:17:16.672Z,30.00
2019-05-26T09:21:21.652Z,30.10
2019-05-26T09:25:26.656Z,30.50
2019-05-26T09:29:31.637Z,30.70
2019-05-26T09:33:36.553Z,31.90
2019-05-26T09:37:41.620Z,32.50
2019-05-26T09:41:46.596Z,33.00
2019-05-26T09:45:51.454Z,34.00
2019-05-26T09:49:56.555Z,33.70
2019-05-26T09:54:02.286Z,33.80
2019-05-26T09:58:07.645Z,33.50
2019-05-26T10:02:12.714Z,32.90
2019-05-26T10:06:17.610Z,31.80
2019-05-26T10:10:22.673Z,30.20
2019-05-26T10:14:47.872Z,29.40
2019-05-26T10:18:52.971Z,29.20
2019-05-26T10:22:58.018Z,29.20
2019-05-26T10:27:03.432Z,29.10
2019-05-26T10:31:08.318Z,30.00
2019-05-26T10:44:14.518Z,32.30
2019-05-26T10:48:19.455Z,30.70
2019-05-26T10:52:24.511Z,29.90
2019-05-26T10:56:29.554Z,30.20
2019-05-26T11:00:43.975Z,30.60
2019-05-26T11:05:24.303Z,30.00
2019-05-26T11:09:35.803Z,29.30
2019-05-26T11:13:40.945Z,29.30
2019-05-26T11:17:46.749Z,31.00
2019-05-26T11:22:12.689Z,33.50
2019-05-26T11:35:20.209Z,35.60
2019-05-26T11:39:25.451Z,36.90
2019-05-26T11:43:30.725Z,37.00
2019-05-26T11:47:35.989Z,37.30
2019-05-26T11:51:41.291Z,34.40
2019-05-26T11:55:48.505Z,34.70
2019-05-26T11:59:53.811Z,35.60
2019-05-26T12:03:58.994Z,36.00
2019-05-26T12:08:04.871Z,36.40
2019-05-26T12:12:10.224Z,35.40
2019-05-26T12:16:15.185Z,33.70
2019-05-26T12:20:20.117Z,33.50
2019-05-26T12:24:29.468Z,34.80
2019-05-26T12:28:34.471Z,36.10
2019-05-26T12:45:09.095Z,37.30
2019-05-26T12:49:14.088Z,37.50
2019-05-26T12:53:19.023Z,38.60
2019-05-26T12:57:23.979Z,37.00
2019-05-26T13:01:28.924Z,37.00
2019-05-26T13:05:34.074Z,38.40
2019-05-26T13:09:39.277Z,39.40
2019-05-26T13:35:09.694Z,39.10
2019-05-26T13:39:14.627Z,39.30
2019-05-26T13:43:19.671Z,39.50
2019-05-26T13:47:26.518Z,37.90
2019-05-26T13:51:31.267Z,38.00
2019-05-26T13:55:36.185Z,37.90
2019-05-26T13:59:41.207Z,36.00
2019-05-26T14:03:46.118Z,33.30
2019-05-26T14:07:51.280Z,34.80
2019-05-26T14:11:56.416Z,36.30
2019-05-26T14:16:01.941Z,37.20
2019-05-26T14:21:05.115Z,35.20
2019-05-26T14:25:10.736Z,34.40
2019-05-26T14:29:15.649Z,34.60
2019-05-26T14:33:20.724Z,35.80
2019-05-26T14:37:25.886Z,33.80
2019-05-26T14:41:30.816Z,30.90
2019-05-26T14:45:35.921Z,28.80
2019-05-26T14:49:40.841Z,27.20
2019-05-26T14:53:45.725Z,26.60
2019-05-26T14:57:50.785Z,26.20
2019-05-26T15:01:55.646Z,29.60
2019-05-26T15:06:05.954Z,33.30
2019-05-26T15:10:08.652Z,36.00
2019-05-26T15:14:13.545Z,35.90
2019-05-26T15:18:18.457Z,33.30
2019-05-26T15:22:23.372Z,30.60
2019-05-26T15:35:58.750Z,27.70
2019-05-26T15:40:04.054Z,26.90
2019-05-26T15:44:09.012Z,26.80
2019-05-26T15:48:14.062Z,29.30
2019-05-26T15:52:19.079Z,32.50
2019-05-26T15:56:23.962Z,34.40
2019-05-26T16:00:29.087Z,34.40
2019-05-26T16:04:34.081Z,32.80
2019-05-26T16:08:39.187Z,32.90
2019-05-26T16:12:44.198Z,33.10
2019-05-26T16:16:51.260Z,32.30
2019-05-26T16:21:03.028Z,30.70
2019-05-26T16:25:02.168Z,29.50
2019-05-26T16:29:07.785Z,27.70
2019-05-26T16:33:12.806Z,26.80
2019-05-26T16:37:17.773Z,26.40
2019-05-26T16:41:22.848Z,25.90
2019-05-26T16:45:27.805Z,25.60
2019-05-26T16:49:32.735Z,25.30
2019-05-26T16:53:37.699Z,25.00
2019-05-26T16:57:42.691Z,24.70
2019-05-26T17:01:51.711Z,24.60
2019-05-26T17:06:07.541Z,24.60
2019-05-26T17:10:12.759Z,24.70
2019-05-26T17:14:27.212Z,24.40
2019-05-26T17:18:32.397Z,24.10
2019-05-26T17:22:37.385Z,23.90
2019-05-26T17:26:42.385Z,23.70
2019-05-26T17:30:47.273Z,23.60
2019-05-26T17:34:52.156Z,23.60
2019-05-26T17:38:57.073Z,23.40
2019-05-26T17:43:01.983Z,23.20
2019-05-26T17:47:07.402Z,22.90
2019-05-26T17:51:12.380Z,22.70
2019-05-26T17:55:18.230Z,22.40
2019-05-26T17:59:23.235Z,22.10
2019-05-26T18:16:22.198Z,21.10
2019-05-26T18:20:37.721Z,20.80
2019-05-26T18:24:54.436Z,20.50
2019-05-26T18:28:49.368Z,20.20
2019-05-26T18:32:54.445Z,19.80
2019-05-26T18:36:59.394Z,19.50
2019-05-26T18:41:04.893Z,19.20
2019-05-26T18:45:11.106Z,18.90
2019-05-26T18:49:23.396Z,18.60
2019-05-26T19:07:40.412Z,17.80
2019-05-26T19:11:52.564Z,17.60
2019-05-26T19:16:07.544Z,17.30
2019-05-26T19:20:25.487Z,17.20
2019-05-26T19:24:43.437Z,17.10
2019-05-26T19:29:02.865Z,17.00
2019-05-26T19:41:56.137Z,16.70
2019-05-26T19:54:55.254Z,16.70
2019-05-26T19:59:00.403Z,16.70
2019-05-26T20:03:06.346Z,16.70
2019-05-26T20:07:11.758Z,16.70
2019-05-26T20:11:17.462Z,16.70
2019-05-26T20:15:22.863Z,16.70
2019-05-26T20:19:30.731Z,16.50
2019-05-26T20:23:35.755Z,16.40
2019-05-26T20:27:41.049Z,16.40
2019-05-26T20:31:54.116Z,16.20
2019-05-26T20:35:58.997Z,16.10
2019-05-26T20:40:04.669Z,16.00
2019-05-26T20:44:09.763Z,15.90
2019-05-26T20:48:14.799Z,15.80
2019-05-26T20:52:19.895Z,15.80
2019-05-26T20:56:25.033Z,15.90
2019-05-26T21:00:30.378Z,15.90
2019-05-26T21:04:43.949Z,15.90
2019-05-26T21:08:48.833Z,15.80
2019-05-26T21:12:53.939Z,15.70
2019-05-26T21:16:58.838Z,15.50
2019-05-26T21:21:04.187Z,15.40
2019-05-26T21:33:39.189Z,15.20
2019-05-26T21:37:44.129Z,15.00
2019-05-26T21:41:49.051Z,14.90
2019-05-26T21:45:53.911Z,14.90
2019-05-26T21:49:58.834Z,14.80
2019-05-26T21:54:04.203Z,14.90
2019-05-26T21:58:09.302Z,14.90
2019-05-26T22:02:14.387Z,14.90
2019-05-26T22:06:20.169Z,14.70
2019-05-26T22:10:25.531Z,14.60
2019-05-26T22:14:30.535Z,14.50
2019-05-26T22:18:35.554Z,14.40
2019-05-26T22:22:40.556Z,14.30
2019-05-26T22:26:45.504Z,14.30
2019-05-26T22:30:50.366Z,14.30
2019-05-26T22:34:55.480Z,14.30
2019-05-26T22:39:00.356Z,14.30
2019-05-26T22:43:05.855Z,14.30
2019-05-26T22:47:11.023Z,14.20
2019-05-26T22:51:16.007Z,14.00
2019-05-26T22:55:21.131Z,14.00
2019-05-26T22:59:26.131Z,13.90
2019-05-26T23:03:31.182Z,13.80
2019-05-26T23:07:36.295Z,13.80
2019-05-26T23:11:41.289Z,13.80
2019-05-26T23:15:46.163Z,13.70
2019-05-26T23:19:51.067Z,13.80
2019-05-26T23:23:55.951Z,13.80
2019-05-26T23:28:00.860Z,13.70
2019-05-26T23:32:06.222Z,13.80
2019-05-26T23:36:11.299Z,13.80
2019-05-26T23:40:16.404Z,13.90
2019-05-26T23:44:21.411Z,13.90
2019-05-26T23:48:26.465Z,13.90
2019-05-26T23:52:31.507Z,13.90
2019-05-26T23:56:36.537Z,13.90
